Time;durP1;ratioP1;P1;durP2;ratioP2;P2;SDS_P1;SDS_P2;PMS_P1;PMS_P2;Temp;Humidity;BMP_temperature;BMP_pressure;BME280_temperature;BME280_humidity;BME280_pressure;Samples;Min_cycle;Max_cycle;Signal;HPM_P1;HPM_P2
2023/03/31 00:02:05;;;;;;;7.35;1.83;;;11.30;99.90;;;;;;5064748;28;20039;-83
2023/03/31 00:04:31;;;;;;;4.93;1.70;;;11.20;99.90;;;;;;5062252;28;20044;-83
2023/03/31 00:06:57;;;;;;;10.50;2.75;;;11.20;99.90;;;;;;5064451;28;20082;-83
2023/03/31 00:09:23;;;;;;;7.15;1.90;;;11.20;99.90;;;;;;5079434;28;20036;-83
2023/03/31 00:11:49;;;;;;;8.60;1.88;;;11.20;99.90;;;;;;5079870;28;20103;-83
2023/03/31 00:14:16;;;;;;;6.60;2.17;;;11.20;99.90;;;;;;5062821;28;20036;-84
2023/03/31 00:16:43;;;;;;;7.70;2.03;;;11.10;99.90;;;;;;5058368;28;20020;-83
2023/03/31 00:19:16;;;;;;;6.65;1.95;;;11.20;99.90;;;;;;5062445;28;20024;-83
2023/03/31 00:21:46;;;;;;;8.77;2.40;;;11.20;99.90;;;;;;5079830;28;20386;-83
2023/03/31 00:24:12;;;;;;;6.57;2.28;;;11.20;99.90;;;;;;5062537;28;20385;-82
2023/03/31 00:26:38;;;;;;;6.85;2.28;;;11.20;99.90;;;;;;5062219;28;20040;-84
2023/03/31 00:29:09;;;;;;;9.45;2.75;;;11.20;99.90;;;;;;5062703;28;20461;-83
2023/03/31 00:31:34;;;;;;;8.32;2.65;;;11.20;99.90;;;;;;5061362;28;20420;-82
2023/03/31 00:34:01;;;;;;;7.82;2.42;;;11.30;99.90;;;;;;5063028;28;20036;-84
2023/03/31 00:36:27;;;;;;;7.68;2.72;;;11.30;99.90;;;;;;5062642;28;20108;-84
2023/03/31 00:39:07;;;;;;;7.82;2.15;;;11.30;99.90;;;;;;5064342;28;20036;-82
2023/03/31 00:41:34;;;;;;;8.52;2.10;;;11.30;99.90;;;;;;5062172;28;20029;-83
2023/03/31 00:44:08;;;;;;;7.30;2.35;;;11.30;99.90;;;;;;5079407;28;20125;-81
2023/03/31 00:46:45;;;;;;;10.02;2.65;;;11.30;99.90;;;;;;5063306;28;20024;-83
2023/03/31 00:49:23;;;;;;;9.50;3.00;;;11.30;99.90;;;;;;5055691;28;20138;-83
2023/03/31 00:51:52;;;;;;;8.43;2.15;;;11.30;99.90;;;;;;5055362;28;20028;-83
2023/03/31 00:54:20;;;;;;;7.57;2.08;;;11.30;99.90;;;;;;5062139;28;20116;-82
2023/03/31 00:56:47;;;;;;;6.75;2.10;;;11.20;99.90;;;;;;5078670;28;20089;-83
2023/03/31 00:59:14;;;;;;;8.38;2.45;;;11.00;99.90;;;;;;5063440;28;20036;-82
2023/03/31 01:01:43;;;;;;;9.90;2.38;;;10.90;99.90;;;;;;5063781;28;20032;-82
2023/03/31 01:04:10;;;;;;;9.30;2.35;;;10.80;99.90;;;;;;5061356;28;20048;-82
2023/03/31 01:06:56;;;;;;;6.80;2.05;;;10.70;99.90;;;;;;5063554;28;20028;-83
2023/03/31 01:09:23;;;;;;;8.18;2.38;;;10.60;99.90;;;;;;5055459;28;20033;-84
2023/03/31 01:11:49;;;;;;;7.55;2.17;;;10.50;99.90;;;;;;5055807;28;20032;-83
2023/03/31 01:14:15;;;;;;;5.07;2.42;;;10.50;99.90;;;;;;5062517;28;20043;-84
2023/03/31 01:16:41;;;;;;;7.20;1.85;;;10.50;99.90;;;;;;5066751;28;20091;-89
2023/03/31 01:19:20;;;;;;;6.78;2.10;;;10.40;99.90;;;;;;5067397;28;20033;-88
2023/03/31 01:22:17;;;;;;;8.18;1.65;;;10.40;99.90;;;;;;5070175;28;20021;-87
2023/03/31 01:24:50;;;;;;;6.30;1.40;;;10.40;99.90;;;;;;5039116;28;20036;-90
2023/03/31 01:27:32;;;;;;;7.25;1.45;;;10.40;99.90;;;;;;5073160;28;20036;-91
2023/03/31 01:30:16;;;;;;;11.02;2.53;;;10.30;99.90;;;;;;5068451;28;20078;-88
2023/03/31 01:33:03;;;;;;;7.60;2.10;;;10.30;99.90;;;;;;5071820;28;20049;-90
2023/03/31 01:35:52;;;;;;;5.10;1.25;;;10.30;99.90;;;;;;5070276;28;20115;-90
2023/03/31 01:38:36;;;;;;;5.68;1.70;;;10.30;99.90;;;;;;5070594;28;20028;-89
2023/03/31 01:41:20;;;;;;;7.40;1.45;;;10.30;99.90;;;;;;5064477;28;20071;-91
2023/03/31 01:43:59;;;;;;;4.60;1.20;;;10.30;99.90;;;;;;5070095;28;20052;-89
2023/03/31 01:46:34;;;;;;;7.82;1.45;;;10.40;99.90;;;;;;5071359;28;20036;-90
2023/03/31 01:49:12;;;;;;;10.93;2.00;;;10.40;99.90;;;;;;5069525;28;20050;-90
2023/03/31 01:51:40;;;;;;;10.05;1.98;;;10.50;99.90;;;;;;5071975;28;20477;-91
2023/03/31 01:54:41;;;;;;;7.07;1.63;;;10.50;99.90;;;;;;5070743;28;20025;-90
2023/03/31 01:57:16;;;;;;;8.40;1.83;;;10.50;99.90;;;;;;5063779;28;20147;-84
2023/03/31 01:59:41;;;;;;;6.90;1.65;;;10.50;99.90;;;;;;5060987;28;20029;-84
2023/03/31 02:02:10;;;;;;;6.90;1.70;;;10.60;99.90;;;;;;5063139;28;20036;-84
2023/03/31 02:04:41;;;;;;;7.15;1.33;;;10.50;99.90;;;;;;5060631;28;20525;-83
2023/03/31 02:07:13;;;;;;;7.80;1.40;;;10.60;99.90;;;;;;5060738;28;20119;-85
2023/03/31 02:09:43;;;;;;;7.15;1.70;;;10.60;99.90;;;;;;5061651;28;20158;-84
2023/03/31 02:12:11;;;;;;;11.38;2.10;;;10.60;99.90;;;;;;5062781;28;20585;-84
2023/03/31 02:14:41;;;;;;;6.53;1.70;;;10.50;99.90;;;;;;5055478;28;20417;-85
2023/03/31 02:17:16;;;;;;;9.77;2.10;;;10.60;99.90;;;;;;5062422;28;20016;-84
2023/03/31 02:19:45;;;;;;;8.50;2.28;;;10.60;99.90;;;;;;5061607;28;20088;-85
2023/03/31 02:22:12;;;;;;;9.52;1.98;;;10.50;99.90;;;;;;5060540;28;20032;-84
2023/03/31 02:24:41;;;;;;;9.23;1.80;;;10.60;99.90;;;;;;5077785;28;20645;-85
2023/03/31 02:27:16;;;;;;;9.80;2.20;;;10.60;99.90;;;;;;5059996;28;20033;-85
2023/03/31 02:29:42;;;;;;;7.53;1.98;;;10.60;99.90;;;;;;5062800;28;20059;-84
2023/03/31 02:32:17;;;;;;;6.70;2.10;;;10.60;99.90;;;;;;5062591;28;20413;-85
2023/03/31 02:34:43;;;;;;;9.45;3.08;;;10.60;99.90;;;;;;5060393;28;20382;-85
2023/03/31 02:37:08;;;;;;;9.23;2.80;;;10.60;99.90;;;;;;5062354;28;20035;-85
2023/03/31 02:39:37;;;;;;;7.93;2.30;;;10.60;99.90;;;;;;5055646;28;20653;-84
2023/03/31 02:42:06;;;;;;;7.78;2.65;;;10.60;99.90;;;;;;5059947;28;20051;-84
2023/03/31 02:44:38;;;;;;;10.10;2.63;;;10.60;99.90;;;;;;5077540;28;20027;-85
2023/03/31 02:47:07;;;;;;;9.85;3.10;;;10.60;99.90;;;;;;5062102;28;20040;-84
2023/03/31 02:49:35;;;;;;;5.32;2.22;;;10.60;99.90;;;;;;5061401;28;20492;-84
2023/03/31 02:52:26;;;;;;;11.57;2.90;;;10.60;99.90;;;;;;5060191;28;20029;-84
2023/03/31 02:55:20;;;;;;;9.18;2.42;;;10.60;99.90;;;;;;5060870;28;20493;-83
2023/03/31 02:57:58;;;;;;;;;;;10.50;99.90;;;;;;5062283;28;20036;-83
2023/03/31 03:00:23;;;;;;;8.65;2.25;;;10.50;99.90;;;;;;5059751;28;20475;-84
2023/03/31 03:03:11;;;;;;;9.70;2.30;;;10.40;99.90;;;;;;5062075;28;20108;-84
2023/03/31 03:05:58;;;;;;;7.60;1.85;;;10.40;99.90;;;;;;5059072;28;20036;-85
2023/03/31 03:08:54;;;;;;;8.38;2.20;;;10.40;99.90;;;;;;5060282;28;20177;-83
2023/03/31 03:11:43;;;;;;;5.38;1.55;;;10.40;99.90;;;;;;5045293;28;20029;-84
2023/03/31 03:14:38;;;;;;;4.60;1.75;;;10.30;99.90;;;;;;5059283;28;20115;-84
2023/03/31 03:17:36;;;;;;;5.85;1.40;;;10.30;99.90;;;;;;5062500;28;20020;-84
2023/03/31 03:20:08;;;;;;;5.93;1.02;;;10.30;99.90;;;;;;5050135;28;20068;-85
2023/03/31 03:22:38;;;;;;;6.88;1.40;;;10.30;99.90;;;;;;5054552;28;20030;-84
2023/03/31 03:25:09;;;;;;;5.72;1.20;;;10.30;99.90;;;;;;5061946;28;21660;-84
2023/03/31 03:27:35;;;;;;;5.45;1.40;;;10.30;99.90;;;;;;5056306;28;20032;-84
2023/03/31 03:30:06;;;;;;;7.93;1.60;;;10.20;99.90;;;;;;5062023;28;21019;-84
2023/03/31 03:32:32;;;;;;;6.68;1.73;;;10.30;99.90;;;;;;5060058;28;20051;-83
2023/03/31 03:34:59;;;;;;;6.72;1.50;;;10.30;99.90;;;;;;5061096;28;20024;-84
2023/03/31 03:37:25;;;;;;;7.18;1.38;;;10.20;99.90;;;;;;5059248;28;20097;-84
2023/03/31 03:39:50;;;;;;;6.45;1.83;;;10.20;99.90;;;;;;5060310;28;20032;-83
2023/03/31 03:42:16;;;;;;;8.90;2.45;;;10.20;99.90;;;;;;5062151;28;20028;-84
2023/03/31 03:44:41;;;;;;;7.32;1.85;;;10.20;99.90;;;;;;5061723;28;20110;-84
2023/03/31 03:47:07;;;;;;;11.57;1.70;;;10.30;99.90;;;;;;5060555;28;20478;-84
2023/03/31 03:49:32;;;;;;;8.38;1.80;;;10.20;99.90;;;;;;5060150;28;20624;-85
2023/03/31 03:51:58;;;;;;;7.32;1.98;;;10.30;99.90;;;;;;5061515;28;20544;-84
2023/03/31 03:54:24;;;;;;;9.63;1.88;;;10.30;99.90;;;;;;5061118;28;20036;-83
2023/03/31 03:56:50;;;;;;;7.30;1.90;;;10.30;99.90;;;;;;5055653;28;20047;-84
2023/03/31 03:59:16;;;;;;;7.40;2.50;;;10.30;99.90;;;;;;5055268;28;22395;-84
2023/03/31 04:01:42;;;;;;;4.28;1.50;;;10.30;99.90;;;;;;5054371;28;20032;-84
2023/03/31 04:04:07;;;;;;;8.57;2.17;;;10.30;99.90;;;;;;5076320;28;20038;-84
2023/03/31 04:06:33;;;;;;;7.35;1.70;;;10.30;99.90;;;;;;5060943;28;20367;-84
2023/03/31 04:08:59;;;;;;;8.90;2.08;;;10.30;99.90;;;;;;5053831;28;20029;-84
2023/03/31 04:11:25;;;;;;;12.75;2.13;;;10.30;99.90;;;;;;5055912;28;20029;-83
2023/03/31 04:13:50;;;;;;;11.57;3.03;;;10.30;99.90;;;;;;5061169;28;20036;-83
2023/03/31 04:16:16;;;;;;;10.93;3.28;;;10.30;99.90;;;;;;5060529;28;20126;-83
2023/03/31 04:18:47;;;;;;;16.48;3.15;;;10.20;99.90;;;;;;5075122;28;20041;-83
2023/03/31 04:21:21;;;;;;;11.98;3.08;;;10.20;99.90;;;;;;5055277;28;20119;-84
2023/03/31 04:23:48;;;;;;;10.10;3.13;;;10.20;99.90;;;;;;5058231;28;20039;-83
2023/03/31 04:26:16;;;;;;;8.63;2.63;;;10.20;99.90;;;;;;5062001;28;20378;-83
2023/03/31 04:28:45;;;;;;;12.00;2.88;;;10.20;99.90;;;;;;5065389;28;20039;-84
2023/03/31 04:31:23;;;;;;;10.15;2.45;;;10.20;99.90;;;;;;5063211;28;20025;-83
2023/03/31 04:33:52;;;;;;;18.85;3.30;;;10.20;99.90;;;;;;5064388;28;20111;-84
2023/03/31 04:36:18;;;;;;;13.15;2.35;;;10.20;99.90;;;;;;5064075;28;20035;-84
2023/03/31 04:38:53;;;;;;;13.05;3.08;;;10.20;99.90;;;;;;5064569;28;20020;-83
2023/03/31 04:41:20;;;;;;;10.95;3.05;;;10.20;99.90;;;;;;5063607;28;20031;-83
2023/03/31 04:43:46;;;;;;;11.00;2.80;;;10.20;99.90;;;;;;5059071;28;20089;-83
2023/03/31 04:46:12;;;;;;;12.68;2.78;;;10.20;99.90;;;;;;5062806;28;20115;-84
2023/03/31 04:48:37;;;;;;;9.00;2.38;;;10.20;99.90;;;;;;5062658;28;20175;-83
2023/03/31 04:51:03;;;;;;;7.47;2.58;;;10.20;99.90;;;;;;5078174;28;20028;-83
2023/03/31 04:53:29;;;;;;;12.48;2.30;;;10.10;99.90;;;;;;5063668;28;20594;-83
2023/03/31 04:55:55;;;;;;;8.68;2.95;;;10.20;99.90;;;;;;5078901;28;20525;-83
2023/03/31 04:58:20;;;;;;;9.77;2.13;;;10.20;99.90;;;;;;5060362;28;20077;-81
2023/03/31 05:00:46;;;;;;;15.45;3.00;;;10.10;99.90;;;;;;5062026;28;20029;-82
2023/03/31 05:03:11;;;;;;;15.10;3.65;;;10.10;99.90;;;;;;5064116;28;20068;-81
2023/03/31 05:05:37;;;;;;;11.75;2.50;;;10.10;99.90;;;;;;5060653;28;20029;-82
2023/03/31 05:08:03;;;;;;;9.82;2.47;;;10.10;99.90;;;;;;5063793;28;20040;-83
2023/03/31 05:10:29;;;;;;;9.27;2.70;;;10.10;99.90;;;;;;5078533;28;20485;-83
2023/03/31 05:12:55;;;;;;;11.48;2.83;;;10.00;99.90;;;;;;5062010;28;20509;-83
2023/03/31 05:15:21;;;;;;;10.75;2.40;;;10.00;99.90;;;;;;5062062;28;20043;-81
2023/03/31 05:17:47;;;;;;;13.75;3.03;;;10.10;99.90;;;;;;5056902;28;20027;-83
2023/03/31 05:20:13;;;;;;;14.43;2.97;;;10.00;99.90;;;;;;5063505;28;20039;-82
2023/03/31 05:22:40;;;;;;;9.18;2.28;;;10.00;99.90;;;;;;5061607;28;20055;-82
2023/03/31 05:25:07;;;;;;;10.35;2.58;;;10.10;99.90;;;;;;5062392;28;20074;-83
2023/03/31 05:27:34;;;;;;;10.15;2.50;;;10.00;99.90;;;;;;5062952;28;20155;-82
2023/03/31 05:30:00;;;;;;;12.38;3.53;;;10.00;99.90;;;;;;5062535;28;20366;-82
2023/03/31 05:32:27;;;;;;;11.85;3.05;;;10.00;99.90;;;;;;5062238;28;20041;-82
2023/03/31 05:34:55;;;;;;;13.95;3.38;;;10.00;99.90;;;;;;5061128;28;20032;-82
2023/03/31 05:37:25;;;;;;;15.00;3.00;;;10.00;99.90;;;;;;5058712;28;20074;-82
2023/03/31 05:39:52;;;;;;;10.90;3.20;;;10.00;99.90;;;;;;5062146;28;20421;-84
2023/03/31 05:42:18;;;;;;;9.65;3.05;;;10.00;99.90;;;;;;5055104;28;20390;-83
2023/03/31 05:44:44;;;;;;;11.02;3.30;;;10.00;99.90;;;;;;5055292;28;20074;-82
2023/03/31 05:47:10;;;;;;;12.23;3.72;;;10.00;99.90;;;;;;5078381;28;20020;-82
2023/03/31 05:49:37;;;;;;;10.98;2.58;;;10.00;99.90;;;;;;5062070;28;20025;-82
2023/03/31 05:52:06;;;;;;;13.70;3.03;;;10.00;99.90;;;;;;5062825;28;20036;-81
2023/03/31 05:54:32;;;;;;;11.88;3.13;;;10.00;99.90;;;;;;5062147;28;20434;-83
2023/03/31 05:56:58;;;;;;;10.70;2.72;;;10.00;99.90;;;;;;5062804;28;20032;-83
2023/03/31 05:59:25;;;;;;;9.05;2.42;;;10.00;99.90;;;;;;5077781;28;20070;-82
2023/03/31 06:01:50;;;;;;;10.85;3.03;;;10.00;99.90;;;;;;5062892;28;20070;-82
2023/03/31 06:04:16;;;;;;;11.57;3.80;;;10.10;99.90;;;;;;5062510;28;20060;-84
2023/03/31 06:06:43;;;;;;;11.27;2.83;;;10.00;99.90;;;;;;5056556;28;20060;-83
2023/03/31 06:09:10;;;;;;;8.70;4.03;;;10.00;99.90;;;;;;5062244;28;20021;-85
2023/03/31 06:11:36;;;;;;;11.20;3.30;;;10.10;99.90;;;;;;5058152;28;20529;-85
2023/03/31 06:14:02;;;;;;;13.02;3.20;;;10.00;99.90;;;;;;5063030;28;20047;-84
2023/03/31 06:16:28;;;;;;;12.43;2.97;;;10.10;99.90;;;;;;5056563;28;20029;-86
2023/03/31 06:18:54;;;;;;;6.97;2.75;;;10.10;99.90;;;;;;5060804;28;20047;-85
2023/03/31 06:21:20;;;;;;;8.98;2.28;;;10.10;99.90;;;;;;5060596;28;20054;-83
2023/03/31 06:23:46;;;;;;;9.27;2.80;;;10.10;99.90;;;;;;5060438;28;20055;-83
2023/03/31 06:26:14;;;;;;;8.82;2.40;;;10.10;99.90;;;;;;5055732;28;20027;-84
2023/03/31 06:28:40;;;;;;;8.32;2.50;;;10.10;99.90;;;;;;5059939;28;20086;-85
2023/03/31 06:31:09;;;;;;;7.25;1.92;;;10.10;99.90;;;;;;5059436;28;20024;-86
2023/03/31 06:33:35;;;;;;;6.93;2.47;;;10.20;99.90;;;;;;5053790;28;20036;-85
2023/03/31 06:36:04;;;;;;;7.70;1.80;;;10.20;99.90;;;;;;5060111;28;20035;-83
2023/03/31 06:38:30;;;;;;;8.52;2.22;;;10.20;99.90;;;;;;5054557;28;20051;-84
2023/03/31 06:40:56;;;;;;;5.43;2.20;;;10.10;99.90;;;;;;5058592;28;20412;-82
2023/03/31 06:43:21;;;;;;;5.97;1.80;;;10.20;99.90;;;;;;5059470;28;20036;-83
2023/03/31 06:45:47;;;;;;;5.03;1.50;;;10.20;99.90;;;;;;5059373;28;22340;-83
2023/03/31 06:48:16;;;;;;;6.30;1.75;;;10.20;99.90;;;;;;5057067;28;20029;-83
2023/03/31 06:50:45;;;;;;;6.85;1.98;;;10.20;99.90;;;;;;5058283;28;20078;-85
2023/03/31 06:53:11;;;;;;;8.48;1.42;;;10.20;99.90;;;;;;5053248;28;20104;-86
2023/03/31 06:55:37;;;;;;;5.65;1.25;;;10.20;99.90;;;;;;5040986;28;20030;-84
2023/03/31 06:58:04;;;;;;;6.30;1.52;;;10.20;99.90;;;;;;5051956;28;20051;-84
2023/03/31 07:00:30;;;;;;;6.22;1.10;;;10.20;99.90;;;;;;5054263;28;20026;-84
2023/03/31 07:02:56;;;;;;;3.88;1.38;;;10.30;99.90;;;;;;5050863;28;20054;-83
2023/03/31 07:05:26;;;;;;;4.57;1.65;;;10.30;99.90;;;;;;5052388;28;20557;-84
2023/03/31 07:07:52;;;;;;;4.05;1.35;;;10.30;99.90;;;;;;5059858;28;20077;-82
2023/03/31 07:10:18;;;;;;;4.75;1.38;;;10.20;99.90;;;;;;5053304;28;20514;-83
2023/03/31 07:12:44;;;;;;;3.92;1.35;;;10.20;99.90;;;;;;5075326;28;20028;-83
2023/03/31 07:15:09;;;;;;;4.43;1.20;;;10.20;99.90;;;;;;5059507;28;20052;-83
2023/03/31 07:17:36;;;;;;;2.92;0.82;;;10.30;99.90;;;;;;5058078;28;20048;-82
2023/03/31 07:20:03;;;;;;;5.25;1.13;;;10.30;99.90;;;;;;5057939;28;20028;-83
2023/03/31 07:22:29;;;;;;;6.13;1.23;;;10.30;99.90;;;;;;5058495;28;20024;-84
2023/03/31 07:24:55;;;;;;;4.60;0.95;;;10.30;99.90;;;;;;5053872;28;20040;-84
2023/03/31 07:27:21;;;;;;;4.90;1.40;;;10.40;99.90;;;;;;5074315;28;20032;-83
2023/03/31 07:29:46;;;;;;;4.13;1.08;;;10.30;99.90;;;;;;5057643;28;20366;-83
2023/03/31 07:32:12;;;;;;;4.55;1.27;;;10.30;99.90;;;;;;5060245;28;20717;-83
2023/03/31 07:34:39;;;;;;;5.07;1.23;;;10.30;99.90;;;;;;5057475;28;20033;-83
2023/03/31 07:37:05;;;;;;;3.20;0.98;;;10.20;99.90;;;;;;5053020;28;20749;-84
2023/03/31 07:39:30;;;;;;;3.47;1.20;;;10.30;99.90;;;;;;5052531;28;20074;-84
2023/03/31 07:41:56;;;;;;;7.25;1.92;;;10.30;99.90;;;;;;5058028;28;20028;-84
2023/03/31 07:44:22;;;;;;;5.70;1.50;;;10.30;99.90;;;;;;5059372;28;20050;-84
2023/03/31 07:46:47;;;;;;;5.57;1.50;;;10.20;99.90;;;;;;5059193;28;20047;-83
2023/03/31 07:49:14;;;;;;;3.95;1.35;;;10.20;99.90;;;;;;5058680;28;20486;-84
2023/03/31 07:51:40;;;;;;;5.20;1.55;;;10.20;99.90;;;;;;5051137;28;20132;-83
2023/03/31 07:54:06;;;;;;;5.07;1.30;;;10.20;99.90;;;;;;5057298;28;20124;-82
2023/03/31 07:56:32;;;;;;;2.90;1.15;;;10.20;99.90;;;;;;5057909;28;20480;-83
2023/03/31 07:58:57;;;;;;;5.80;1.38;;;10.30;99.90;;;;;;5072050;28;20552;-81
2023/03/31 08:01:24;;;;;;;6.50;1.67;;;10.30;99.90;;;;;;5075687;28;20387;-83
2023/03/31 08:03:53;;;;;;;6.07;1.40;;;10.30;99.90;;;;;;5061206;28;20059;-83
2023/03/31 08:06:21;;;;;;;6.88;1.45;;;10.30;99.90;;;;;;5055411;28;20020;-84
2023/03/31 08:08:49;;;;;;;5.55;1.60;;;10.30;99.90;;;;;;5062072;28;20689;-85
2023/03/31 08:11:16;;;;;;;4.85;1.40;;;10.30;99.90;;;;;;5060836;28;20530;-84
2023/03/31 08:13:41;;;;;;;6.15;1.13;;;10.30;99.90;;;;;;5062146;28;20040;-83
2023/03/31 08:16:07;;;;;;;5.03;1.67;;;10.40;99.90;;;;;;5063135;28;20028;-83
2023/03/31 08:18:33;;;;;;;8.15;1.30;;;10.50;99.90;;;;;;5062480;28;20078;-83
2023/03/31 08:20:58;;;;;;;4.43;1.50;;;10.50;99.90;;;;;;5062395;28;20029;-85
2023/03/31 08:23:24;;;;;;;6.93;2.13;;;10.50;99.90;;;;;;5060760;28;20041;-85
2023/03/31 08:25:50;;;;;;;7.18;1.90;;;10.60;99.90;;;;;;5064544;28;20158;-84
2023/03/31 08:28:16;;;;;;;5.78;1.95;;;10.70;99.90;;;;;;5059173;28;20035;-83
2023/03/31 08:30:42;;;;;;;6.68;1.95;;;10.90;99.90;;;;;;5061102;28;20432;-85
2023/03/31 08:33:08;;;;;;;6.75;2.40;;;11.00;99.90;;;;;;5062484;28;20036;-84
2023/03/31 08:35:36;;;;;;;5.45;2.20;;;11.10;99.90;;;;;;5061748;28;20043;-86
2023/03/31 08:38:02;;;;;;;7.65;2.70;;;11.20;99.90;;;;;;5062825;28;20485;-83
2023/03/31 08:40:29;;;;;;;9.40;2.60;;;11.40;99.90;;;;;;5061918;28;20144;-83
2023/03/31 08:43:03;;;;;;;8.63;2.45;;;11.50;99.90;;;;;;5062109;28;20486;-84
2023/03/31 08:45:40;;;;;;;8.65;2.60;;;11.60;99.90;;;;;;5062247;28;20016;-85
2023/03/31 08:48:28;;;;;;;12.00;3.22;;;11.70;99.90;;;;;;5059938;28;20110;-84
2023/03/31 08:51:03;;;;;;;8.13;2.65;;;11.70;99.90;;;;;;5055353;28;20036;-83
2023/03/31 08:53:33;;;;;;;12.25;3.15;;;11.70;99.90;;;;;;5061772;28;20044;-83
2023/03/31 08:56:00;;;;;;;10.15;2.80;;;11.70;99.90;;;;;;5077750;28;20024;-85
2023/03/31 08:58:42;;;;;;;10.82;3.30;;;11.70;99.90;;;;;;5061748;28;20416;-84
2023/03/31 09:01:40;;;;;;;11.73;2.40;;;11.80;99.90;;;;;;5053731;28;20059;-84
2023/03/31 09:04:39;;;;;;;14.30;3.35;;;11.90;99.90;;;;;;5060573;28;20253;-84
2023/03/31 09:07:09;;;;;;;13.32;3.20;;;11.90;99.90;;;;;;5055279;28;20471;-83
2023/03/31 09:10:06;;;;;;;11.80;3.13;;;11.90;99.90;;;;;;5059674;28;20029;-84
2023/03/31 09:13:03;;;;;;;16.15;2.88;;;11.90;99.90;;;;;;5057934;28;20036;-83
2023/03/31 09:15:49;;;;;;;11.75;3.22;;;11.90;99.90;;;;;;5058202;28;20522;-85
2023/03/31 09:18:24;;;;;;;11.85;3.03;;;11.70;99.90;;;;;;5062064;28;20035;-82
2023/03/31 09:20:55;;;;;;;8.80;2.38;;;11.70;99.90;;;;;;5060943;28;20020;-84
2023/03/31 09:23:30;;;;;;;11.43;3.00;;;11.70;99.90;;;;;;5053984;28;20498;-85
2023/03/31 09:25:58;;;;;;;13.15;3.38;;;11.80;99.90;;;;;;5061212;28;20101;-85
2023/03/31 09:28:30;;;;;;;10.88;2.75;;;11.80;99.90;;;;;;5061341;28;20090;-84
2023/03/31 09:30:56;;;;;;;13.13;2.83;;;11.80;99.90;;;;;;5059822;28;20033;-83
2023/03/31 09:33:32;;;;;;;13.93;2.80;;;11.80;99.90;;;;;;5061069;28;20352;-85
2023/03/31 09:36:05;;;;;;;12.55;3.55;;;11.80;99.90;;;;;;5060606;28;20032;-82
2023/03/31 09:38:30;;;;;;;;;;;11.90;99.90;;;;;;5060248;28;20028;-84
2023/03/31 09:40:58;;;;;;;16.38;4.78;;;11.90;99.90;;;;;;5076153;28;19913;-84
2023/03/31 09:43:27;;;;;;;24.70;4.30;;;11.90;99.90;;;;;;5061016;28;20140;-83
2023/03/31 09:45:53;;;;;;;13.48;3.88;;;11.90;99.90;;;;;;5059102;28;20013;-85
2023/03/31 09:48:22;;;;;;;18.20;3.47;;;12.00;99.90;;;;;;5054901;28;20117;-84
2023/03/31 09:50:58;;;;;;;14.38;3.53;;;12.10;99.90;;;;;;5060899;28;20111;-84
2023/03/31 09:53:31;;;;;;;15.73;3.80;;;12.10;99.90;;;;;;5060023;28;20051;-83
2023/03/31 09:56:02;;;;;;;13.68;3.97;;;12.10;99.90;;;;;;5060682;28;20052;-84
2023/03/31 09:58:28;;;;;;;16.52;3.78;;;12.10;99.90;;;;;;5057453;28;20158;-83
2023/03/31 10:01:05;;;;;;;17.80;3.67;;;12.10;99.90;;;;;;5059395;28;20062;-84
2023/03/31 10:03:35;;;;;;;13.30;3.63;;;12.20;99.90;;;;;;5053883;28;20048;-84
2023/03/31 10:06:07;;;;;;;16.05;3.40;;;12.10;99.90;;;;;;5060999;28;20032;-84
2023/03/31 10:08:40;;;;;;;15.75;3.72;;;12.10;99.90;;;;;;5061685;28;20136;-84
2023/03/31 10:11:10;;;;;;;10.45;3.22;;;12.10;99.90;;;;;;5052933;28;20636;-83
2023/03/31 10:13:48;;;;;;;16.60;3.47;;;12.10;99.90;;;;;;5061928;28;20039;-85
2023/03/31 10:16:21;;;;;;;14.35;3.22;;;12.10;99.90;;;;;;5076262;28;20039;-84
2023/03/31 10:18:47;;;;;;;14.35;3.13;;;12.10;99.90;;;;;;5059118;28;20021;-83
2023/03/31 10:21:25;;;;;;;14.13;2.85;;;12.00;99.90;;;;;;5053073;28;20065;-83
2023/03/31 10:23:53;;;;;;;15.27;3.17;;;12.00;99.90;;;;;;5059895;28;20036;-84
2023/03/31 10:26:25;;;;;;;11.98;2.60;;;11.90;99.90;;;;;;5052585;28;20029;-83
2023/03/31 10:28:51;;;;;;;8.68;2.28;;;11.80;99.90;;;;;;5075076;28;20094;-82
2023/03/31 10:31:18;;;;;;;10.32;2.03;;;11.80;99.90;;;;;;5051005;28;20028;-81
2023/03/31 10:33:47;;;;;;;12.77;2.72;;;11.80;99.90;;;;;;5052468;28;20036;-82
2023/03/31 10:36:26;;;;;;;12.98;2.95;;;11.90;99.90;;;;;;5074318;28;20020;-82
2023/03/31 10:38:52;;;;;;;12.60;2.33;;;12.00;99.90;;;;;;5058582;28;20564;-82
2023/03/31 10:41:23;;;;;;;12.45;2.53;;;12.00;99.90;;;;;;5052029;28;20036;-82
2023/03/31 10:43:53;;;;;;;11.63;2.28;;;12.20;99.90;;;;;;5052135;28;20143;-83
2023/03/31 10:46:19;;;;;;;14.57;3.35;;;12.30;99.90;;;;;;5074208;28;20029;-84
2023/03/31 10:48:46;;;;;;;13.73;2.55;;;12.50;99.90;;;;;;5059506;28;20036;-82
2023/03/31 10:51:48;;;;;;;12.02;2.25;;;12.60;99.90;;;;;;5059059;28;20039;-81
2023/03/31 10:54:13;;;;;;;14.32;2.28;;;12.90;99.90;;;;;;5048376;28;20106;-83
2023/03/31 10:56:41;;;;;;;8.75;1.88;;;13.00;99.90;;;;;;5058709;28;20028;-83
2023/03/31 10:59:28;;;;;;;10.40;2.17;;;13.30;99.90;;;;;;5056400;28;21070;-82
2023/03/31 11:02:12;;;;;;;9.63;2.13;;;13.40;99.90;;;;;;5074521;28;20064;-81
2023/03/31 11:05:14;;;;;;;14.45;3.28;;;13.50;99.90;;;;;;5056948;28;20052;-82
2023/03/31 11:08:13;;;;;;;12.82;2.53;;;13.50;99.90;;;;;;5033453;28;20928;-81
2023/03/31 11:11:08;;;;;;;12.48;2.75;;;13.40;99.90;;;;;;5072419;28;20036;-82
2023/03/31 11:13:47;;;;;;;13.52;3.50;;;13.30;99.90;;;;;;5057833;28;20063;-83
2023/03/31 11:16:28;;;;;;;9.68;2.53;;;13.20;99.90;;;;;;5056991;28;20074;-82
2023/03/31 11:19:05;;;;;;;11.10;2.28;;;13.00;99.90;;;;;;5057205;28;20024;-82
2023/03/31 11:21:56;;;;;;;10.88;2.40;;;12.90;99.90;;;;;;5057409;28;20021;-83
2023/03/31 11:24:40;;;;;;;11.13;2.47;;;12.90;99.90;;;;;;5056534;28;20028;-83
2023/03/31 11:27:25;;;;;;;11.25;2.53;;;12.90;99.90;;;;;;5057037;28;20033;-83
2023/03/31 11:29:54;;;;;;;9.57;2.33;;;13.00;99.90;;;;;;5059404;28;20119;-82
2023/03/31 11:32:38;;;;;;;12.55;2.80;;;13.00;99.90;;;;;;5058411;28;20044;-82
2023/03/31 11:35:15;;;;;;;;;;;13.00;99.90;;;;;;5059433;28;20557;-83
2023/03/31 11:37:49;;;;;;;10.80;2.10;;;12.90;99.90;;;;;;5062270;28;20045;-81
2023/03/31 11:40:24;;;;;;;11.35;2.33;;;12.80;99.90;;;;;;5062017;28;20033;-82
2023/03/31 11:42:54;;;;;;;10.68;2.35;;;13.00;99.90;;;;;;5060482;28;20029;-82
2023/03/31 11:45:26;;;;;;;9.35;1.92;;;13.30;99.90;;;;;;5062895;28;20024;-82
2023/03/31 11:47:56;;;;;;;10.38;2.30;;;13.40;99.90;;;;;;5054763;28;20086;-82
2023/03/31 11:50:26;;;;;;;9.60;1.83;;;13.60;99.90;;;;;;5062547;28;20031;-82
2023/03/31 11:53:05;;;;;;;6.88;1.73;;;13.80;99.90;;;;;;5062285;28;20051;-83
2023/03/31 11:55:31;;;;;;;11.68;2.17;;;13.80;99.90;;;;;;5056521;28;20028;-82
2023/03/31 11:58:06;;;;;;;10.02;2.20;;;13.80;99.90;;;;;;5054618;28;20024;-81
2023/03/31 12:00:40;;;;;;;11.73;2.65;;;13.70;99.90;;;;;;5059571;28;20029;-85
2023/03/31 12:03:51;;;;;;;9.40;1.70;;;13.60;99.90;;;;;;5062232;28;20083;-84
2023/03/31 12:06:20;;;;;;;9.73;2.50;;;13.50;99.90;;;;;;5077397;28;20033;-82
2023/03/31 12:09:19;;;;;;;10.88;2.03;;;13.40;99.90;;;;;;5056284;28;20024;-84
2023/03/31 12:11:54;;;;;;;9.45;2.00;;;13.20;99.90;;;;;;5051967;28;21774;-83
2023/03/31 12:14:34;;;;;;;9.65;2.20;;;12.90;99.90;;;;;;5060364;28;20123;-83
2023/03/31 12:17:10;;;;;;;9.63;1.83;;;12.90;99.90;;;;;;5059569;28;20469;-84
2023/03/31 12:19:48;;;;;;;10.38;1.90;;;12.80;99.90;;;;;;5061435;28;20044;-82
2023/03/31 12:22:30;;;;;;;15.05;2.22;;;12.80;99.90;;;;;;5059779;28;20036;-82
2023/03/31 12:24:55;;;;;;;10.00;2.40;;;12.80;99.90;;;;;;5062273;28;20041;-84
2023/03/31 12:27:40;;;;;;;9.38;2.50;;;12.70;99.90;;;;;;5059228;28;20494;-84
2023/03/31 12:30:10;;;;;;;9.15;2.38;;;12.70;99.90;;;;;;5059895;28;20029;-83
2023/03/31 12:32:39;;;;;;;12.73;2.67;;;12.70;99.90;;;;;;5060959;28;20040;-84
2023/03/31 12:35:20;;;;;;;10.20;2.40;;;12.70;99.90;;;;;;5054663;28;20028;-82
2023/03/31 12:38:05;;;;;;;10.43;2.92;;;12.70;99.90;;;;;;5062443;28;20425;-83
2023/03/31 12:41:02;;;;;;;10.88;2.53;;;12.70;99.90;;;;;;5057787;28;20093;-84
2023/03/31 12:43:51;;;;;;;9.57;2.28;;;12.50;99.90;;;;;;5061739;28;20062;-83
2023/03/31 12:46:29;;;;;;;8.23;1.77;;;12.40;99.90;;;;;;5060769;28;20021;-82
2023/03/31 12:49:04;;;;;;;15.95;3.08;;;12.30;99.90;;;;;;5059498;28;20418;-82
2023/03/31 12:51:50;;;;;;;10.27;2.35;;;12.20;99.90;;;;;;5061959;28;20103;-83
2023/03/31 12:54:52;;;;;;;9.85;2.00;;;12.00;99.90;;;;;;5060998;28;20540;-82
2023/03/31 12:57:23;;;;;;;10.57;2.35;;;11.90;99.90;;;;;;5059453;28;20126;-82
2023/03/31 13:00:12;;;;;;;9.82;2.00;;;11.80;99.90;;;;;;5058172;28;20111;-83
2023/03/31 13:02:41;;;;;;;7.47;1.92;;;11.80;99.90;;;;;;5060116;28;20412;-82
2023/03/31 13:05:35;;;;;;;7.22;1.50;;;11.80;99.90;;;;;;5053248;28;20064;-83
2023/03/31 13:08:01;;;;;;;;;;;11.90;99.90;;;;;;5059908;28;20033;-83